Impacts TAF Board
For situational awareness. Not to be used for flight planning purposes.
IDs:

KMDW - Chicago/Midway Intl, IL, US

Issued at 1739 UTC 22 Sep 2018
Updated at 1937 UTC 22 Sep 2018
Potential Impact None Slight Moderate High
Time1853Z 22/20Z 22/21Z 22/22Z 22/23Z 23/00Z 23/01Z 23/02Z 23/03Z 23/04Z 23/05Z 23/06Z 23/07Z 23/08Z>>
Type OBS PRVL PRVL PRVL PRVL PRVL PRVL PRVL PRVL PRVL PRVL PRVL PRVL PRVL
VIS 10 >6 >6 >6 >6 >6 >6 >6 >6 >6 >6 >6 >6 >6
CIG -- -- -- -- -- -- -- -- -- -- -- -- -- --
Cover FEW SKC SKC SKC SKC SKC SKC SKC SKC SKC SKC SKC SKC SKC
FltCat VFR VFR VFR VFR VFR VFR VFR VFR VFR VFR VFR VFR VFR VFR
WX -- -- -- -- -- -- -- -- -- -- -- -- -- --
WDir 40 80 80 80 80 80 110 110 110 110 110 110 110 110
WSpd 8 11 11 11 11 11 5 5 5 5 5 5 5 5
WGst 16 -- -- -- -- -- -- -- -- -- -- -- -- --
Raw TAF
KMDW 221739Z 2218/2324 08011KT P6SM SKC
  FM230100 11005KT P6SM SKC
  FM231700 09010KT P6SM FEW250


Raw METAR
KMDW 221853Z 04008G16KT 10SM FEW030 FEW250 17/07 A3027 RMK AO2 SLP248 T01670072
KMDW 221753Z 06008KT 10SM FEW030 FEW250 16/06 A3030 RMK AO2 SLP258 T01610061 10167 20144 58011
KMDW 221653Z 07009G19KT 10SM FEW030 FEW080 FEW250 16/06 A3031 RMK AO2 SLP263 T01610056

METAR Board
Radar Display
Forecast Discussion
For situational awareness. Not to be used for flight planning purposes.